FranceFixed distance
Luchon Aneto Trail - L'Ultra Lat
8–9 Jul2023
Distance
85km
Finishers
211196 men15 women
Winning time
9:57:48h
Median pace
5.23km/h
Pace distribution
211 finishers · 4.33–8.53 km/h · mean 5.33
Every finisher ran the same 85 km course, so these paces are directly comparable.
Histogram of finisher pace. 211 finishers ranged from 4.33 to 8.53 kilometres per hour, with a mean of 5.33 and a median of 5.23. The busiest band is 4.5 to 5.0 kilometres per hour, with 68 finishers.
Results
Ranks 201–211 of 211
| Rank | Runner | Time | Pace | Cat. | Placing |
|---|---|---|---|---|---|
| 201 | Marathon des Graves | 18:55:54h | 4.49 | W35 | 14th F · 4th W35 |
| 202 | les Coureurs du Soubestre | 19:05:46h | 4.45 | W40 | 15th F · 7th W40 |
| 202 | 19:05:46h | 4.45 | M45 | 188th M · 32nd M45 | |
| 204 | 19:05:52h | 4.45 | M35 | 189th M · 41st M35 | |
| 205 | 19:07:48h | 4.44 | M35 | 190th M · 42nd M35 | |
| 206 | 19:11:42h | 4.43 | M45 | 191st M · 33rd M45 | |
| 207 | *Toulouse | 19:15:54h | 4.41 | M45 | 192nd M · 34th M45 |
| 208 | 19:15:55h | 4.41 | M23 | 193rd M · 50th M23 | |
| 209 | 19:37:20h | 4.33 | M40 | 194th M · 37th M40 | |
| 210 | 19:37:22h | 4.33 | M40 | 195th M · 38th M40 | |
| 210 | 19:37:22h | 4.33 | M40 | 195th M · 38th M40 |
- 201Marathon des Graves14th F · 4th W35Time18:55:54hPace4.49Cat.W35
- 202les Coureurs du Soubestre15th F · 7th W40Time19:05:46hPace4.45Cat.W40
- 202188th M · 32nd M45Time19:05:46hPace4.45Cat.M45
- 204189th M · 41st M35Time19:05:52hPace4.45Cat.M35
- 205190th M · 42nd M35Time19:07:48hPace4.44Cat.M35
- 206191st M · 33rd M45Time19:11:42hPace4.43Cat.M45
- 207*Toulouse192nd M · 34th M45Time19:15:54hPace4.41Cat.M45
- 208193rd M · 50th M23Time19:15:55hPace4.41Cat.M23
- 209194th M · 37th M40Time19:37:20hPace4.33Cat.M40
- 210195th M · 38th M40Time19:37:22hPace4.33Cat.M40
- 210195th M · 38th M40Time19:37:22hPace4.33Cat.M40
Showing ranks 201–211 of 211